createdAt,value
2018-05-31T05:50:26.765Z,58.25
2018-05-31T05:51:28.167Z,55.98
2018-05-31T05:52:29.565Z,53.72
2018-05-31T05:53:30.971Z,51.77
2018-05-31T05:54:32.370Z,50.29
2018-05-31T05:55:33.785Z,48.46
2018-05-31T05:56:35.179Z,47.31
2018-05-31T05:57:36.580Z,46.36
2018-05-31T05:58:37.981Z,45.80
2018-05-31T05:59:39.381Z,44.55
2018-05-31T06:00:40.780Z,43.13
2018-05-31T06:01:42.193Z,42.66
2018-05-31T06:02:43.588Z,41.49
2018-05-31T06:03:44.999Z,41.03
2018-05-31T06:04:46.402Z,39.90
2018-05-31T06:05:47.806Z,38.92
2018-05-31T06:06:49.206Z,39.19
2018-05-31T06:07:50.619Z,39.23
2018-05-31T06:08:52.027Z,38.66
2018-05-31T06:09:53.470Z,38.19
2018-05-31T06:10:54.856Z,37.01
2018-05-31T06:11:56.217Z,36.75
2018-05-31T06:12:57.619Z,35.97
2018-05-31T06:13:59.041Z,35.21
2018-05-31T06:15:00.443Z,33.77
2018-05-31T06:16:01.853Z,33.87
2018-05-31T06:17:03.274Z,33.86
2018-05-31T06:18:04.686Z,33.98
2018-05-31T06:19:06.103Z,32.42
2018-05-31T06:20:07.516Z,31.35
2018-05-31T06:21:08.942Z,31.07
2018-05-31T06:22:10.359Z,30.79
2018-05-31T06:23:11.719Z,30.50
2018-05-31T06:24:13.140Z,30.61
2018-05-31T06:25:14.554Z,30.66
2018-05-31T06:26:16.015Z,31.06
2018-05-31T06:27:17.336Z,32.04
2018-05-31T06:28:18.752Z,31.44
2018-05-31T06:29:20.169Z,31.63
2018-05-31T06:30:21.582Z,31.35
2018-05-31T06:31:22.998Z,31.57
2018-05-31T06:32:24.406Z,30.79
2018-05-31T06:33:25.777Z,30.78
2018-05-31T06:34:27.190Z,30.99
2018-05-31T06:35:28.609Z,30.51
2018-05-31T06:36:30.017Z,29.52
2018-05-31T06:37:32.206Z,29.55
2018-05-31T06:38:33.614Z,29.17
2018-05-31T06:39:35.035Z,29.24
2018-05-31T06:40:36.440Z,29.17
2018-05-31T06:41:37.865Z,29.27
2018-05-31T06:42:39.271Z,28.21
2018-05-31T06:43:40.691Z,28.09
2018-05-31T06:44:42.102Z,28.61
2018-05-31T06:45:43.517Z,28.21
2018-05-31T06:46:44.935Z,28.39
2018-05-31T06:47:46.355Z,28.48
2018-05-31T06:48:47.797Z,28.89
2018-05-31T06:49:49.199Z,28.20
2018-05-31T06:50:50.623Z,28.18
2018-05-31T06:51:52.037Z,28.59
2018-05-31T06:52:53.521Z,28.11
2018-05-31T06:53:54.890Z,28.11
2018-05-31T06:54:56.308Z,27.34
2018-05-31T06:55:57.726Z,27.04
2018-05-31T06:56:59.146Z,27.14
2018-05-31T06:58:00.566Z,27.55
2018-05-31T06:59:01.995Z,26.35
2018-05-31T07:00:03.400Z,26.44
2018-05-31T07:01:04.822Z,26.27
2018-05-31T07:02:06.234Z,25.67
2018-05-31T07:03:07.649Z,26.56
2018-05-31T07:04:09.070Z,25.68
2018-05-31T07:05:10.481Z,25.08
2018-05-31T07:06:12.751Z,25.56
2018-05-31T07:07:14.167Z,27.50
2018-05-31T07:08:15.590Z,27.02
2018-05-31T07:09:17.009Z,26.15
2018-05-31T07:10:18.417Z,25.98
2018-05-31T07:11:19.837Z,25.59
2018-05-31T07:12:21.265Z,25.65
2018-05-31T07:13:22.681Z,25.85
2018-05-31T07:14:24.095Z,26.81
2018-05-31T07:15:25.512Z,27.22
2018-05-31T07:16:26.940Z,27.02
2018-05-31T07:17:28.350Z,26.64
2018-05-31T07:18:29.774Z,26.38
2018-05-31T07:19:31.192Z,25.10
2018-05-31T07:20:32.604Z,25.27
2018-05-31T07:21:34.024Z,25.67
2018-05-31T07:22:35.438Z,25.08
2018-05-31T07:23:36.861Z,25.60
2018-05-31T07:24:38.275Z,24.98
2018-05-31T07:25:39.694Z,24.98
2018-05-31T07:26:41.109Z,24.60
2018-05-31T07:27:42.532Z,24.32
2018-05-31T07:28:43.939Z,24.43
2018-05-31T07:29:45.369Z,23.72
2018-05-31T07:30:46.795Z,24.01
2018-05-31T07:31:48.221Z,24.49
2018-05-31T07:32:49.635Z,24.58
2018-05-31T07:33:51.058Z,25.39
2018-05-31T07:34:52.469Z,24.31
2018-05-31T07:35:53.891Z,23.71
2018-05-31T07:36:55.320Z,23.83
2018-05-31T07:37:56.727Z,23.74
2018-05-31T07:38:58.147Z,23.12
2018-05-31T07:39:59.574Z,23.72
2018-05-31T07:41:01.000Z,23.71
2018-05-31T07:42:02.410Z,23.71
2018-05-31T07:43:03.831Z,24.12
2018-05-31T07:44:05.250Z,23.72
2018-05-31T07:45:06.659Z,23.71
2018-05-31T07:46:08.742Z,24.01
2018-05-31T07:47:10.159Z,24.31
2018-05-31T07:48:11.594Z,23.71
2018-05-31T07:49:13.015Z,24.41
2018-05-31T07:50:14.436Z,24.40
2018-05-31T07:51:15.891Z,24.49
2018-05-31T07:52:17.267Z,24.80
2018-05-31T07:53:18.696Z,24.51
2018-05-31T07:54:20.126Z,24.40
2018-05-31T07:55:21.536Z,24.41
2018-05-31T07:56:22.958Z,24.51
2018-05-31T07:57:24.374Z,24.69
2018-05-31T07:58:25.787Z,25.14
2018-05-31T07:59:27.211Z,26.80
2018-05-31T08:00:28.624Z,27.35
2018-05-31T08:01:30.040Z,28.30
2018-05-31T08:02:31.455Z,29.93
2018-05-31T08:03:32.868Z,31.29
2018-05-31T08:04:34.301Z,31.69
2018-05-31T08:05:35.710Z,31.88
2018-05-31T08:06:37.125Z,31.70
2018-05-31T08:07:38.555Z,30.45
2018-05-31T08:08:39.967Z,29.21
2018-05-31T08:09:41.376Z,28.34
2018-05-31T08:10:42.790Z,27.18
2018-05-31T08:11:44.219Z,26.19
2018-05-31T08:12:45.622Z,26.10
2018-05-31T08:13:47.044Z,25.52
2018-05-31T08:14:48.444Z,25.54
2018-05-31T08:15:49.862Z,24.97
2018-05-31T08:16:51.282Z,24.57
2018-05-31T08:17:52.692Z,24.58
2018-05-31T08:18:54.108Z,24.00
2018-05-31T08:19:55.530Z,23.60
2018-05-31T08:20:56.947Z,24.00
2018-05-31T08:21:58.356Z,24.10
2018-05-31T08:22:59.792Z,23.81
2018-05-31T08:24:01.248Z,23.90
2018-05-31T08:25:02.679Z,24.49
2018-05-31T08:26:04.099Z,24.30
2018-05-31T08:27:05.508Z,24.49
2018-05-31T08:28:06.929Z,23.72
2018-05-31T08:29:08.354Z,23.80
2018-05-31T08:30:09.765Z,23.71
2018-05-31T08:31:11.185Z,23.43
2018-05-31T08:32:12.588Z,23.14
2018-05-31T08:33:14.607Z,23.05
2018-05-31T08:34:16.209Z,23.16
2018-05-31T08:35:17.771Z,22.96
2018-05-31T08:36:19.197Z,22.28
2018-05-31T08:37:20.607Z,21.69
2018-05-31T08:38:22.024Z,21.11
2018-05-31T08:39:23.448Z,20.11
2018-05-31T08:40:24.861Z,21.08
2018-05-31T08:41:26.284Z,22.64
2018-05-31T08:42:27.696Z,22.93
2018-05-31T08:43:29.118Z,22.63
2018-05-31T08:44:30.534Z,22.66
2018-05-31T08:45:31.955Z,22.94
2018-05-31T08:46:33.362Z,22.77
2018-05-31T08:47:34.799Z,22.74
2018-05-31T08:48:36.221Z,22.81
2018-05-31T08:49:37.646Z,23.60
2018-05-31T08:50:39.062Z,24.01
2018-05-31T08:51:40.493Z,23.90
2018-05-31T08:52:41.917Z,23.70
2018-05-31T08:53:43.333Z,23.21
2018-05-31T08:54:44.745Z,22.84
2018-05-31T08:55:46.191Z,22.53
2018-05-31T08:56:47.601Z,21.63
2018-05-31T08:57:49.026Z,21.62
2018-05-31T08:58:50.449Z,22.41
2018-05-31T08:59:51.865Z,22.19
2018-05-31T09:00:53.287Z,22.97
2018-05-31T09:01:54.703Z,22.99
2018-05-31T09:02:56.125Z,22.91
2018-05-31T09:03:57.540Z,22.41
2018-05-31T09:04:58.963Z,23.10
2018-05-31T09:06:00.383Z,23.58
2018-05-31T09:07:01.797Z,22.80
2018-05-31T09:08:03.212Z,23.70
2018-05-31T09:09:04.632Z,22.33
2018-05-31T09:10:06.052Z,21.53
2018-05-31T09:11:07.468Z,22.41
2018-05-31T09:12:08.902Z,22.41
2018-05-31T09:13:10.328Z,22.51
2018-05-31T09:14:11.736Z,22.47
2018-05-31T09:15:13.183Z,23.44
2018-05-31T09:16:14.582Z,23.66
2018-05-31T09:17:15.998Z,23.94
2018-05-31T09:18:17.416Z,24.33
2018-05-31T09:19:18.839Z,23.84
2018-05-31T09:20:20.252Z,22.96
2018-05-31T09:21:21.676Z,23.94
2018-05-31T09:22:23.082Z,23.94
2018-05-31T09:23:24.511Z,23.55
2018-05-31T09:24:25.920Z,23.14
2018-05-31T09:25:27.349Z,23.14
2018-05-31T09:26:28.767Z,22.85
2018-05-31T09:27:30.185Z,22.75
2018-05-31T09:28:31.667Z,22.56
2018-05-31T09:29:33.023Z,23.06
2018-05-31T09:30:34.443Z,22.77
2018-05-31T09:31:35.853Z,22.37
2018-05-31T09:32:37.271Z,22.64
2018-05-31T09:33:38.689Z,23.14
2018-05-31T09:34:40.103Z,23.50
2018-05-31T09:35:41.514Z,23.99
2018-05-31T09:36:42.941Z,24.39
2018-05-31T09:37:44.356Z,24.29
2018-05-31T09:38:45.764Z,23.59
2018-05-31T09:39:47.172Z,24.19
2018-05-31T09:40:48.592Z,24.37
2018-05-31T09:41:50.008Z,24.96
2018-05-31T09:42:51.408Z,23.77
2018-05-31T09:43:52.822Z,24.35
2018-05-31T09:44:54.230Z,25.62
2018-05-31T09:45:55.642Z,25.03
2018-05-31T09:46:57.060Z,24.92
2018-05-31T09:47:58.471Z,26.25
2018-05-31T09:48:59.880Z,27.14
2018-05-31T09:50:01.294Z,27.33
2018-05-31T09:51:02.696Z,27.51
2018-05-31T09:52:04.110Z,28.29
2018-05-31T09:53:05.524Z,29.06
2018-05-31T09:54:06.972Z,30.42
2018-05-31T09:55:08.384Z,29.82
2018-05-31T09:56:09.787Z,30.21
2018-05-31T09:57:11.196Z,30.78
2018-05-31T09:58:12.652Z,31.37
2018-05-31T09:59:14.024Z,30.49
2018-05-31T10:00:15.447Z,30.37
2018-05-31T10:01:16.837Z,30.87
2018-05-31T10:02:18.255Z,31.24
2018-05-31T10:03:19.661Z,32.12
2018-05-31T10:04:21.067Z,32.63
2018-05-31T10:05:22.484Z,31.65
2018-05-31T10:06:23.892Z,30.18
2018-05-31T10:07:25.291Z,29.08
2018-05-31T10:08:26.700Z,29.87
2018-05-31T10:09:28.113Z,30.65
2018-05-31T10:10:29.521Z,30.93
2018-05-31T10:11:30.925Z,31.71
2018-05-31T10:12:32.322Z,30.62
2018-05-31T10:13:33.728Z,32.17
2018-05-31T10:14:35.138Z,32.37
2018-05-31T10:15:36.547Z,32.58
2018-05-31T10:16:38.852Z,32.87
2018-05-31T10:17:40.269Z,34.13
2018-05-31T10:18:41.671Z,34.34
2018-05-31T10:19:43.084Z,34.93
2018-05-31T10:20:44.488Z,33.26
2018-05-31T10:21:45.916Z,32.68
2018-05-31T10:22:47.333Z,32.39
2018-05-31T10:23:48.735Z,33.56
2018-05-31T10:24:50.134Z,33.26
2018-05-31T10:25:51.537Z,33.65
2018-05-31T10:26:52.943Z,33.48
2018-05-31T10:27:54.350Z,32.10
2018-05-31T10:28:55.751Z,31.99
2018-05-31T10:29:57.173Z,30.51
2018-05-31T10:30:58.565Z,30.90
2018-05-31T10:31:59.975Z,30.41
2018-05-31T10:33:01.372Z,31.59
2018-05-31T10:34:02.768Z,31.49
2018-05-31T10:35:04.173Z,31.59
2018-05-31T10:36:05.577Z,31.20
2018-05-31T10:37:06.974Z,31.20
2018-05-31T10:38:08.385Z,31.10
2018-05-31T10:39:09.782Z,30.13
2018-05-31T10:40:11.331Z,30.33
2018-05-31T10:41:12.719Z,30.23
2018-05-31T10:42:14.131Z,31.80
2018-05-31T10:43:15.529Z,32.39
2018-05-31T10:44:16.938Z,32.09
2018-05-31T10:45:18.349Z,32.97
2018-05-31T10:46:19.795Z,32.56
2018-05-31T10:47:21.159Z,33.17
2018-05-31T10:48:22.560Z,32.46
2018-05-31T10:49:23.967Z,33.56
2018-05-31T10:50:25.362Z,33.07
2018-05-31T10:51:26.770Z,32.97
2018-05-31T10:52:28.182Z,31.98
2018-05-31T10:53:29.579Z,32.17
2018-05-31T10:54:31.765Z,32.26
2018-05-31T10:55:33.169Z,32.16
2018-05-31T10:56:34.576Z,32.55
2018-05-31T10:57:35.974Z,32.37
2018-05-31T10:58:37.382Z,32.46
2018-05-31T10:59:38.784Z,30.98
2018-05-31T11:00:40.188Z,32.06
2018-05-31T11:01:41.592Z,32.35
2018-05-31T11:02:42.997Z,32.55
2018-05-31T11:03:44.394Z,32.35
2018-05-31T11:04:45.799Z,32.94
2018-05-31T11:05:47.198Z,33.12
2018-05-31T11:06:48.598Z,33.02
2018-05-31T11:07:50.009Z,33.51
2018-05-31T11:08:51.401Z,32.53
2018-05-31T11:09:52.802Z,32.73
2018-05-31T11:10:54.212Z,32.75
2018-05-31T11:11:55.679Z,32.65
2018-05-31T11:12:57.031Z,32.55
2018-05-31T11:13:58.439Z,33.25
2018-05-31T11:14:59.922Z,33.05
2018-05-31T11:16:01.229Z,33.25
2018-05-31T11:17:02.637Z,32.66
2018-05-31T11:18:04.034Z,32.87
2018-05-31T11:19:05.456Z,32.39
2018-05-31T11:20:06.856Z,32.30
2018-05-31T11:21:08.271Z,32.50
2018-05-31T11:22:09.671Z,32.50
2018-05-31T11:23:11.080Z,32.61
2018-05-31T11:24:12.484Z,32.50
2018-05-31T11:25:13.881Z,32.51
2018-05-31T11:26:15.280Z,31.73
2018-05-31T11:27:16.690Z,32.04
2018-05-31T11:28:18.082Z,31.65
2018-05-31T11:29:19.527Z,31.24
2018-05-31T11:30:20.894Z,31.63
2018-05-31T11:31:22.296Z,31.54
2018-05-31T11:32:23.692Z,31.54
2018-05-31T11:33:25.094Z,31.52
2018-05-31T11:34:26.501Z,32.09
2018-05-31T11:35:27.908Z,31.70
2018-05-31T11:36:29.318Z,28.78
2018-05-31T11:37:30.710Z,27.24
2018-05-31T11:38:32.120Z,26.79
2018-05-31T11:39:33.525Z,26.11
2018-05-31T11:40:34.925Z,26.23
2018-05-31T11:41:36.358Z,25.92
2018-05-31T11:42:37.749Z,27.00
2018-05-31T11:43:39.152Z,26.70
2018-05-31T11:44:40.560Z,26.20
2018-05-31T11:45:41.977Z,25.90
2018-05-31T11:46:43.368Z,25.40
2018-05-31T11:47:44.777Z,24.33
2018-05-31T11:48:46.183Z,24.15
2018-05-31T11:49:47.590Z,23.78
2018-05-31T11:50:48.988Z,23.30
2018-05-31T11:51:50.398Z,22.82
2018-05-31T11:52:51.921Z,23.00
2018-05-31T11:53:53.327Z,22.34
2018-05-31T11:54:54.734Z,22.14
2018-05-31T11:55:56.137Z,22.25
2018-05-31T11:56:57.552Z,22.36
2018-05-31T11:57:58.946Z,22.37
2018-05-31T11:59:00.366Z,22.56
2018-05-31T12:00:01.766Z,22.09
2018-05-31T12:01:03.166Z,22.30
2018-05-31T12:02:04.579Z,21.32
2018-05-31T12:03:05.975Z,21.51
2018-05-31T12:04:07.405Z,21.22
2018-05-31T12:05:08.819Z,21.33
2018-05-31T12:06:10.226Z,21.04
2018-05-31T12:07:11.627Z,21.44
2018-05-31T12:08:13.112Z,21.62
2018-05-31T12:09:14.447Z,22.01
2018-05-31T12:10:15.863Z,22.41
2018-05-31T12:11:17.271Z,22.30
2018-05-31T12:12:18.669Z,22.20
2018-05-31T12:13:20.069Z,23.00
2018-05-31T12:14:21.497Z,22.59
2018-05-31T12:15:22.909Z,23.00
2018-05-31T12:16:24.305Z,22.70
2018-05-31T12:17:25.817Z,21.70
2018-05-31T12:18:27.092Z,21.61
2018-05-31T12:19:28.504Z,21.21
2018-05-31T12:20:29.915Z,21.42
2018-05-31T12:21:31.319Z,21.94
2018-05-31T12:22:32.727Z,19.66
2018-05-31T12:23:34.122Z,20.35
2018-05-31T12:24:35.532Z,22.13
2018-05-31T12:25:36.936Z,21.73
2018-05-31T12:26:38.360Z,21.56
2018-05-31T12:27:39.754Z,21.64
2018-05-31T12:28:41.160Z,22.22
2018-05-31T12:29:42.572Z,21.83
2018-05-31T12:30:43.973Z,21.91
2018-05-31T12:31:46.055Z,23.06
2018-05-31T12:32:47.458Z,23.65
2018-05-31T12:33:48.875Z,24.23
2018-05-31T12:34:50.291Z,24.24
2018-05-31T12:35:51.695Z,24.15
2018-05-31T12:36:53.107Z,23.55
2018-05-31T12:37:54.510Z,22.86
2018-05-31T12:38:55.915Z,23.75
2018-05-31T12:39:57.315Z,24.30
2018-05-31T12:40:58.727Z,25.08
2018-05-31T12:42:00.141Z,24.96
2018-05-31T12:43:01.539Z,26.03
2018-05-31T12:44:02.941Z,27.09
2018-05-31T12:45:04.345Z,28.26
2018-05-31T12:46:05.743Z,28.05
2018-05-31T12:47:07.148Z,29.02
2018-05-31T12:48:08.565Z,28.91
2018-05-31T12:49:09.958Z,29.59
2018-05-31T12:50:11.368Z,29.98
2018-05-31T12:51:12.780Z,28.71
2018-05-31T12:52:14.185Z,27.73
2018-05-31T12:53:15.589Z,26.96
2018-05-31T12:54:16.995Z,26.96
2018-05-31T12:55:18.406Z,27.14
2018-05-31T12:56:19.818Z,27.14
2018-05-31T12:57:21.218Z,27.44
2018-05-31T12:58:22.620Z,27.24
2018-05-31T12:59:24.036Z,27.73
2018-05-31T13:00:25.436Z,28.69
2018-05-31T13:01:26.840Z,29.46
2018-05-31T13:02:28.246Z,29.56
2018-05-31T13:03:29.670Z,29.75
2018-05-31T13:04:31.077Z,29.55
2018-05-31T13:05:32.474Z,30.22
2018-05-31T13:06:33.874Z,30.32
2018-05-31T13:07:35.278Z,30.22
2018-05-31T13:08:36.739Z,30.32
2018-05-31T13:09:38.138Z,30.22
2018-05-31T13:10:39.551Z,29.93
2018-05-31T13:11:40.951Z,30.02
2018-05-31T13:12:42.353Z,29.83
2018-05-31T13:13:43.774Z,30.51
2018-05-31T13:14:45.165Z,29.61
2018-05-31T13:15:46.565Z,30.30
2018-05-31T13:16:47.966Z,30.79
2018-05-31T13:17:49.371Z,30.10
2018-05-31T13:18:50.806Z,30.20
2018-05-31T13:19:52.179Z,30.87
2018-05-31T13:20:53.575Z,29.90
2018-05-31T13:21:54.983Z,30.09
2018-05-31T13:22:56.380Z,29.70
2018-05-31T13:23:57.787Z,29.90
2018-05-31T13:24:59.191Z,29.41
2018-05-31T13:26:00.598Z,29.02
2018-05-31T13:27:01.998Z,29.02
2018-05-31T13:28:03.412Z,29.11
2018-05-31T13:29:04.816Z,29.79
2018-05-31T13:30:06.214Z,29.02
2018-05-31T13:31:07.626Z,28.43
2018-05-31T13:32:09.022Z,28.82
2018-05-31T13:33:10.451Z,29.10
2018-05-31T13:34:11.850Z,29.70
2018-05-31T13:35:13.250Z,29.41
2018-05-31T13:36:14.655Z,28.92
2018-05-31T13:37:16.062Z,28.72
2018-05-31T13:38:17.448Z,28.04
2018-05-31T13:39:18.857Z,27.84
2018-05-31T13:40:20.273Z,28.72
2018-05-31T13:41:21.663Z,28.33
2018-05-31T13:42:23.070Z,27.75
2018-05-31T13:43:24.462Z,28.43
2018-05-31T13:44:25.879Z,28.82
2018-05-31T13:45:27.275Z,29.02
2018-05-31T13:46:28.687Z,29.50
2018-05-31T13:47:30.083Z,29.41
2018-05-31T13:48:31.499Z,28.82
2018-05-31T13:49:32.897Z,29.31
2018-05-31T13:50:34.301Z,28.72
2018-05-31T13:51:35.699Z,28.71
2018-05-31T13:52:37.113Z,28.92
2018-05-31T13:53:38.514Z,29.31
2018-05-31T13:54:39.908Z,29.41
2018-05-31T13:55:41.323Z,29.70
2018-05-31T13:56:42.728Z,29.41
2018-05-31T13:57:44.123Z,29.31
2018-05-31T13:58:45.530Z,29.50
2018-05-31T13:59:46.926Z,29.88
2018-05-31T14:00:48.325Z,30.57
2018-05-31T14:01:50.570Z,30.86
2018-05-31T14:02:51.970Z,30.76
2018-05-31T14:03:53.387Z,30.86
2018-05-31T14:04:54.776Z,29.88
2018-05-31T14:05:56.994Z,30.68
2018-05-31T14:06:58.425Z,29.70
2018-05-31T14:07:59.819Z,29.70
2018-05-31T14:09:01.224Z,29.41
2018-05-31T14:10:02.629Z,29.70
2018-05-31T14:11:04.037Z,29.80
2018-05-31T14:12:05.449Z,29.90
2018-05-31T14:13:06.839Z,29.80
2018-05-31T14:14:08.249Z,29.11
2018-05-31T14:15:09.650Z,29.69
2018-05-31T14:16:11.071Z,29.02
2018-05-31T14:17:13.294Z,29.59
2018-05-31T14:18:14.716Z,29.79
2018-05-31T14:19:16.114Z,30.18
2018-05-31T14:20:17.544Z,28.91
2018-05-31T14:21:18.934Z,28.81
2018-05-31T14:22:20.342Z,29.59
2018-05-31T14:23:21.755Z,29.77
2018-05-31T14:24:23.160Z,29.77
2018-05-31T14:25:24.566Z,29.86
2018-05-31T14:26:25.973Z,29.77
2018-05-31T14:27:27.388Z,30.16
2018-05-31T14:28:28.760Z,30.16
2018-05-31T14:29:30.150Z,29.96
2018-05-31T14:30:31.556Z,29.86
2018-05-31T14:31:32.947Z,28.99
2018-05-31T14:32:34.349Z,29.67
2018-05-31T14:33:35.775Z,29.28
2018-05-31T14:34:37.167Z,29.67
2018-05-31T14:35:38.572Z,29.88
2018-05-31T14:36:39.975Z,30.06
2018-05-31T14:37:41.379Z,30.16
2018-05-31T14:38:42.775Z,30.35
2018-05-31T14:39:44.175Z,30.55
2018-05-31T14:40:45.583Z,30.06
2018-05-31T14:41:46.978Z,30.55
2018-05-31T14:42:48.388Z,30.55
2018-05-31T14:43:49.775Z,30.45
2018-05-31T14:44:51.183Z,30.45
2018-05-31T14:45:52.576Z,30.45
2018-05-31T14:46:53.990Z,30.55
2018-05-31T14:47:55.387Z,30.35
2018-05-31T14:48:56.795Z,29.77
2018-05-31T14:49:58.189Z,29.67
2018-05-31T14:50:59.592Z,30.26
2018-05-31T14:52:00.995Z,30.84
2018-05-31T14:53:02.446Z,30.35
2018-05-31T14:54:03.846Z,30.35
2018-05-31T14:55:05.239Z,30.55
2018-05-31T14:56:06.634Z,30.55
2018-05-31T14:57:08.050Z,30.55
2018-05-31T14:58:09.458Z,29.96
2018-05-31T14:59:10.865Z,29.46
2018-05-31T15:00:12.251Z,29.67
2018-05-31T15:01:13.657Z,29.96
2018-05-31T15:02:15.055Z,29.57
2018-05-31T15:03:16.457Z,29.77
2018-05-31T15:04:17.874Z,30.06
2018-05-31T15:05:19.289Z,30.06
2018-05-31T15:06:20.695Z,30.34
2018-05-31T15:07:22.089Z,30.54
2018-05-31T15:08:23.491Z,31.33
2018-05-31T15:09:24.887Z,31.43
2018-05-31T15:10:26.289Z,31.04
2018-05-31T15:11:27.698Z,31.33
2018-05-31T15:12:29.110Z,31.52
2018-05-31T15:13:30.504Z,31.93
2018-05-31T15:14:31.902Z,32.21
2018-05-31T15:15:33.318Z,31.92
2018-05-31T15:16:34.726Z,32.01
2018-05-31T15:17:36.127Z,32.40
2018-05-31T15:18:37.522Z,32.21
2018-05-31T15:19:38.928Z,32.21
2018-05-31T15:20:40.323Z,32.50
2018-05-31T15:21:41.728Z,32.31
2018-05-31T15:22:43.132Z,32.32
2018-05-31T15:23:44.540Z,32.23
2018-05-31T15:24:45.939Z,32.23
2018-05-31T15:25:47.285Z,32.23
2018-05-31T15:26:48.648Z,36.33
2018-05-31T15:27:50.053Z,38.77
2018-05-31T15:28:51.473Z,40.53
2018-05-31T15:29:52.875Z,42.55
2018-05-31T15:30:54.267Z,43.04
2018-05-31T15:31:55.665Z,43.22
2018-05-31T15:32:57.071Z,44.09
2018-05-31T15:33:58.471Z,44.38
2018-05-31T15:34:59.885Z,44.97
2018-05-31T15:36:01.332Z,45.64
2018-05-31T15:37:02.694Z,46.00
2018-05-31T15:38:04.105Z,46.88
2018-05-31T15:39:05.496Z,46.97
2018-05-31T15:40:06.897Z,47.17
2018-05-31T15:41:08.290Z,47.34
2018-05-31T15:42:09.728Z,47.92
2018-05-31T15:43:11.094Z,48.02
2018-05-31T15:44:12.496Z,48.88
2018-05-31T15:45:13.898Z,48.88
2018-05-31T15:46:15.308Z,49.17
2018-05-31T15:47:16.692Z,49.07
2018-05-31T15:48:18.092Z,49.17
2018-05-31T15:49:19.490Z,49.07
2018-05-31T15:50:20.898Z,49.17
2018-05-31T15:51:22.296Z,48.88
2018-05-31T15:52:23.695Z,49.07
2018-05-31T15:53:25.104Z,49.37
2018-05-31T15:54:26.498Z,48.19
2018-05-31T15:55:27.899Z,48.19
2018-05-31T15:56:29.294Z,47.80
2018-05-31T15:57:30.712Z,46.93
2018-05-31T15:58:32.102Z,46.73
2018-05-31T15:59:33.499Z,46.83
2018-05-31T16:00:34.895Z,46.34
2018-05-31T16:01:36.298Z,45.86
2018-05-31T16:02:37.706Z,45.67
2018-05-31T16:03:39.109Z,46.05
2018-05-31T16:04:40.530Z,46.91
2018-05-31T16:05:41.929Z,46.54
2018-05-31T16:06:43.324Z,46.71
2018-05-31T16:07:44.721Z,46.83
2018-05-31T16:08:46.123Z,47.03
2018-05-31T16:09:47.519Z,46.32
2018-05-31T16:10:48.948Z,46.81
2018-05-31T16:11:50.332Z,46.13
2018-05-31T16:12:51.736Z,46.23
2018-05-31T16:13:53.136Z,46.71
2018-05-31T16:14:54.539Z,47.00
2018-05-31T16:15:55.946Z,46.13
2018-05-31T16:16:57.377Z,46.32
2018-05-31T16:17:58.767Z,46.51
2018-05-31T16:19:00.169Z,46.81
2018-05-31T16:20:01.626Z,46.23
2018-05-31T16:21:02.984Z,46.32
2018-05-31T16:22:04.383Z,46.81
2018-05-31T16:23:05.781Z,47.10
2018-05-31T16:24:07.179Z,47.08
2018-05-31T16:25:09.188Z,47.47
2018-05-31T16:26:10.023Z,47.47
2018-05-31T16:27:11.403Z,47.27
2018-05-31T16:28:12.849Z,47.47
2018-05-31T16:29:14.262Z,47.47
2018-05-31T16:30:15.674Z,47.56
2018-05-31T16:31:17.091Z,47.47
2018-05-31T16:32:18.487Z,48.05
2018-05-31T16:33:19.913Z,47.96
2018-05-31T16:34:21.309Z,48.05
2018-05-31T16:35:22.711Z,48.83
2018-05-31T16:36:24.113Z,48.93
2018-05-31T16:37:25.513Z,48.73
2018-05-31T16:38:26.913Z,48.54
2018-05-31T16:39:28.324Z,48.83
2018-05-31T16:40:29.727Z,48.73
2018-05-31T16:41:31.124Z,48.83
2018-05-31T16:42:32.532Z,49.02
2018-05-31T16:43:33.935Z,49.41
2018-05-31T16:44:35.301Z,49.41
2018-05-31T16:45:36.690Z,49.61
2018-05-31T16:46:38.082Z,49.99
2018-05-31T16:47:39.478Z,50.07
2018-05-31T16:48:40.890Z,50.36
2018-05-31T16:49:42.249Z,50.58
2018-05-31T16:50:43.656Z,50.85
2018-05-31T16:51:45.065Z,51.23
2018-05-31T16:52:46.471Z,51.62
2018-05-31T16:53:47.906Z,52.31
2018-05-31T16:54:49.326Z,52.89
2018-05-31T16:55:50.719Z,53.57
2018-05-31T16:56:52.131Z,53.47
2018-05-31T16:57:53.484Z,53.67
2018-05-31T16:58:54.849Z,54.15
2018-05-31T16:59:56.255Z,53.83
2018-05-31T17:00:57.624Z,53.83
2018-05-31T17:01:58.995Z,53.83
2018-05-31T17:03:00.363Z,54.52
2018-05-31T17:04:01.718Z,54.71
2018-05-31T17:05:03.090Z,54.80
2018-05-31T17:06:04.456Z,54.61
2018-05-31T17:07:05.809Z,54.42
2018-05-31T17:08:07.170Z,54.29
2018-05-31T17:09:08.538Z,54.49
2018-05-31T17:10:09.930Z,54.58
2018-05-31T17:11:11.340Z,54.97
2018-05-31T17:12:12.736Z,54.68
2018-05-31T17:13:14.140Z,54.88
2018-05-31T17:14:15.541Z,54.75
2018-05-31T17:15:16.939Z,55.24
2018-05-31T17:16:18.984Z,55.53
2018-05-31T17:17:20.346Z,55.53
2018-05-31T17:18:21.809Z,55.92
2018-05-31T17:19:23.212Z,55.69
2018-05-31T17:20:24.566Z,55.69
2018-05-31T17:21:25.925Z,55.69
2018-05-31T17:22:27.321Z,56.09
2018-05-31T17:23:28.727Z,55.99
2018-05-31T17:24:30.133Z,56.45
2018-05-31T17:25:31.541Z,56.25
2018-05-31T17:26:32.940Z,56.35
2018-05-31T17:27:34.337Z,56.25
2018-05-31T17:28:35.740Z,57.03
2018-05-31T17:29:37.151Z,57.32
2018-05-31T17:30:38.533Z,56.81
2018-05-31T17:31:39.939Z,57.09
2018-05-31T17:32:41.347Z,57.09
2018-05-31T17:33:42.757Z,57.09
2018-05-31T17:34:44.152Z,57.48
2018-05-31T17:35:45.556Z,57.09
2018-05-31T17:36:46.963Z,57.29
2018-05-31T17:37:49.162Z,57.48
2018-05-31T17:38:50.564Z,57.29
2018-05-31T17:39:51.957Z,57.19
2018-05-31T17:40:53.359Z,57.87
2018-05-31T17:41:54.762Z,57.75
2018-05-31T17:42:56.208Z,57.55
2018-05-31T17:43:57.571Z,57.55
2018-05-31T17:44:58.967Z,57.75
2018-05-31T17:46:00.382Z,57.65
2018-05-31T17:47:01.794Z,58.52
2018-05-31T17:48:03.182Z,58.33
2018-05-31T17:49:04.579Z,57.84
2018-05-31T17:50:05.970Z,57.94
2018-05-31T17:51:07.377Z,58.14
2018-05-31T17:52:08.776Z,57.65
2018-05-31T17:53:10.189Z,58.49
2018-05-31T17:54:11.592Z,58.39
2018-05-31T17:55:12.947Z,58.49
2018-05-31T17:56:14.357Z,58.59
2018-05-31T17:57:15.743Z,58.30
2018-05-31T17:58:17.143Z,58.11
2018-05-31T17:59:18.528Z,58.49
2018-05-31T18:00:19.869Z,58.88
2018-05-31T18:01:21.280Z,59.17
2018-05-31T18:02:22.682Z,59.56
2018-05-31T18:03:24.092Z,60.33
2018-05-31T18:04:25.505Z,59.94
2018-05-31T18:05:26.883Z,60.43
2018-05-31T18:06:28.241Z,60.52
2018-05-31T18:07:29.660Z,60.91
2018-05-31T18:08:31.066Z,60.72
2018-05-31T18:09:32.468Z,60.43
2018-05-31T18:10:33.881Z,60.33
2018-05-31T18:11:35.284Z,60.82
2018-05-31T18:12:37.639Z,60.62
2018-05-31T18:13:39.040Z,61.08
2018-05-31T18:14:40.440Z,60.88
2018-05-31T18:15:41.845Z,60.59
2018-05-31T18:16:43.243Z,60.59
2018-05-31T18:17:44.632Z,60.69
2018-05-31T18:18:46.870Z,60.78
2018-05-31T18:19:48.272Z,61.27
2018-05-31T18:20:49.730Z,60.98
2018-05-31T18:21:51.108Z,61.18
2018-05-31T18:22:52.499Z,61.15
2018-05-31T18:23:53.916Z,60.95
2018-05-31T18:24:55.281Z,61.05
2018-05-31T18:25:56.667Z,61.63
2018-05-31T18:26:58.073Z,61.72
2018-05-31T18:27:59.481Z,61.63
2018-05-31T18:29:00.848Z,61.82
2018-05-31T18:30:02.249Z,61.98
2018-05-31T18:31:03.638Z,61.60
2018-05-31T18:32:04.998Z,61.69
2018-05-31T18:33:06.352Z,61.60
2018-05-31T18:34:07.755Z,61.79
2018-05-31T18:35:09.154Z,61.40
2018-05-31T18:36:10.558Z,61.89
2018-05-31T18:37:12.001Z,61.95
2018-05-31T18:38:13.346Z,62.27
2018-05-31T18:39:14.743Z,62.24
2018-05-31T18:40:16.152Z,62.44
2018-05-31T18:41:17.562Z,62.63
2018-05-31T18:42:18.957Z,61.86
2018-05-31T18:43:20.343Z,62.24
2018-05-31T18:44:21.745Z,61.86
2018-05-31T18:45:23.150Z,62.24
2018-05-31T18:46:24.549Z,62.31
2018-05-31T18:47:25.990Z,62.24
2018-05-31T18:48:27.294Z,62.53
2018-05-31T18:49:28.686Z,62.60
2018-05-31T18:50:30.085Z,62.63
2018-05-31T18:51:31.488Z,62.31
2018-05-31T18:52:32.881Z,62.12
2018-05-31T18:53:34.375Z,62.40
2018-05-31T18:54:35.761Z,62.70
2018-05-31T18:55:37.161Z,62.60
2018-05-31T18:56:38.565Z,62.12
2018-05-31T18:57:39.956Z,62.79
2018-05-31T18:58:41.391Z,63.08
2018-05-31T18:59:42.745Z,62.89
2018-05-31T19:00:44.146Z,62.89